Time;durP1;ratioP1;P1;durP2;ratioP2;P2;SDS_P1;SDS_P2;PMS_P1;PMS_P2;Temp;Humidity;BMP_temperature;BMP_pressure;BME280_temperature;BME280_humidity;BME280_pressure;Samples;Min_cycle;Max_cycle;Signal;HPM_P1;HPM_P2
2022/06/12 00:00:04;;;;;;;349.95;205.55;;;;;;;19.33;98.03;99127.50;414221;23;1254;-80
2022/06/12 00:00:18;;;;;;;350.20;206.23;;;;;;;19.36;97.95;99130.75;412178;24;1592;-79
2022/06/12 00:00:29;;;;;;;348.52;206.65;;;;;;;19.36;98.08;99129.91;412473;24;905;-79
2022/06/12 00:00:40;;;;;;;348.88;206.35;;;;;;;19.34;97.77;99122.09;413818;23;1528;-79
2022/06/12 00:00:50;;;;;;;351.13;204.05;;;;;;;19.35;97.86;99123.75;411996;24;1295;-79
2022/06/12 00:01:01;;;;;;;353.98;205.48;;;;;;;19.36;97.84;99120.13;412159;24;786;-80
2022/06/12 00:01:12;;;;;;;357.27;208.00;;;;;;;19.35;97.88;99123.75;415954;23;1082;-80
2022/06/12 00:01:22;;;;;;;358.98;211.68;;;;;;;19.35;97.89;99129.06;410357;24;885;-80
2022/06/12 00:01:33;;;;;;;363.27;212.90;;;;;;;19.38;97.68;99123.50;410227;24;1156;-80
2022/06/12 00:01:44;;;;;;;361.23;212.63;;;;;;;19.38;98.02;99123.50;410288;24;822;-80
2022/06/12 00:01:54;;;;;;;358.67;210.52;;;;;;;19.38;97.73;99131.47;408746;24;1327;-80
2022/06/12 00:02:05;;;;;;;355.03;209.53;;;;;;;19.33;97.52;99123.06;410410;24;1194;-80
2022/06/12 00:02:15;;;;;;;357.73;210.05;;;;;;;19.32;97.62;99124.03;410556;24;1334;-80
2022/06/12 00:02:25;;;;;;;360.17;211.53;;;;;;;19.25;97.98;99128.16;412042;24;1278;-80
2022/06/12 00:02:36;;;;;;;361.65;210.40;;;;;;;19.20;98.19;99125.88;410323;24;1232;-80
2022/06/12 00:02:46;;;;;;;359.70;212.10;;;;;;;19.23;97.96;99119.50;408153;24;1191;-80
2022/06/12 00:02:57;;;;;;;358.80;215.38;;;;;;;19.26;98.12;99127.19;412147;24;1385;-80
2022/06/12 00:03:10;;;;;;;353.27;211.10;;;;;;;19.30;98.26;99125.13;413968;23;1430;-80
2022/06/12 00:03:21;;;;;;;351.45;206.70;;;;;;;19.31;97.76;99127.66;409926;24;1274;-80
2022/06/12 00:03:33;;;;;;;351.15;205.65;;;;;;;19.31;97.96;99122.34;411916;24;893;-80
2022/06/12 00:03:43;;;;;;;351.33;209.35;;;;;;;19.34;98.02;99127.38;414053;23;1401;-80
2022/06/12 00:03:54;;;;;;;351.83;209.63;;;;;;;19.37;97.69;99121.81;411941;24;865;-80
2022/06/12 00:04:04;;;;;;;351.33;210.05;;;;;;;19.38;97.71;99125.31;408355;24;1224;-80
2022/06/12 00:04:15;;;;;;;352.43;209.70;;;;;;;19.39;97.61;99129.66;412138;24;985;-80
2022/06/12 00:04:25;;;;;;;353.27;210.27;;;;;;;19.36;97.87;99124.59;410189;24;1199;-80
2022/06/12 00:04:36;;;;;;;352.08;209.50;;;;;;;19.37;98.05;99116.50;408534;24;826;-80
2022/06/12 00:04:47;;;;;;;349.67;207.55;;;;;;;19.41;97.90;99125.91;408914;24;1397;-80
2022/06/12 00:04:57;;;;;;;348.73;208.37;;;;;;;19.39;97.80;99125.19;411313;24;1053;-80
2022/06/12 00:05:08;;;;;;;349.90;209.50;;;;;;;19.40;97.59;99120.72;410201;24;1231;-81
2022/06/12 00:05:19;;;;;;;353.42;210.57;;;;;;;19.42;97.75;99132.06;408097;24;1772;-81
2022/06/12 00:05:31;;;;;;;354.25;206.35;;;;;;;19.41;97.74;99127.72;412292;24;882;-80
2022/06/12 00:05:44;;;;;;;353.58;205.65;;;;;;;19.39;98.06;99130.50;410195;24;1387;-80
2022/06/12 00:05:56;;;;;;;353.80;207.25;;;;;;;19.38;97.62;99126.16;410223;24;1350;-82
2022/06/12 00:06:07;;;;;;;349.80;203.82;;;;;;;19.35;97.73;99118.47;410356;24;898;-80
2022/06/12 00:06:18;;;;;;;348.17;207.20;;;;;;;19.34;97.71;99130.03;412046;24;1202;-80
2022/06/12 00:06:28;;;;;;;347.73;206.50;;;;;;;19.30;97.45;99125.13;414029;23;1241;-80
2022/06/12 00:06:38;;;;;;;350.17;208.67;;;;;;;19.30;97.61;99128.63;412274;24;1331;-81
2022/06/12 00:06:49;;;;;;;352.27;208.97;;;;;;;19.30;97.48;99130.44;412183;24;1282;-81
2022/06/12 00:06:59;;;;;;;355.60;211.13;;;;;;;19.30;97.71;99127.78;412379;24;865;-81
2022/06/12 00:07:10;;;;;;;356.50;211.63;;;;;;;19.25;97.85;99115.72;410547;24;1399;-81
2022/06/12 00:07:20;;;;;;;355.52;209.32;;;;;;;19.28;98.26;99122.59;410436;24;996;-81
2022/06/12 00:07:30;;;;;;;355.43;210.00;;;;;;;19.23;98.03;99124.78;410928;24;967;-81
2022/06/12 00:07:41;;;;;;;354.10;208.35;;;;;;;19.22;97.97;99125.75;412041;24;1356;-81
2022/06/12 00:07:51;;;;;;;354.67;209.50;;;;;;;19.20;98.29;99119.75;412440;23;1290;-81
2022/06/12 00:08:03;;;;;;;349.58;206.63;;;;;;;19.22;98.04;99123.13;408443;24;1274;-80
2022/06/12 00:08:13;;;;;;;349.20;207.90;;;;;;;19.25;98.34;99117.53;408557;24;1393;-81
2022/06/12 00:08:24;;;;;;;350.98;210.80;;;;;;;19.25;98.21;99128.16;411984;24;1198;-81
2022/06/12 00:08:36;;;;;;;355.20;212.80;;;;;;;19.22;98.39;99117.81;411935;24;810;-81
2022/06/12 00:08:46;;;;;;;354.58;212.05;;;;;;;19.25;98.22;99122.84;413879;23;1380;-81
2022/06/12 00:08:57;;;;;;;353.50;210.50;;;;;;;19.20;98.32;99117.09;411894;24;1310;-81
2022/06/12 00:09:07;;;;;;;353.20;209.03;;;;;;;19.21;98.19;99121.44;411968;24;1129;-81
2022/06/12 00:09:17;;;;;;;352.77;207.18;;;;;;;19.21;98.41;99127.56;412056;24;1317;-81
2022/06/12 00:09:28;;;;;;;354.60;208.37;;;;;;;19.21;98.14;99118.78;411975;24;1264;-81
2022/06/12 00:09:38;;;;;;;355.33;210.15;;;;;;;19.18;98.44;99121.69;408517;24;814;-81
2022/06/12 00:09:49;;;;;;;356.63;209.93;;;;;;;19.20;98.21;99114.44;412316;24;837;-81
2022/06/12 00:09:59;;;;;;;356.97;209.67;;;;;;;19.19;98.29;99113.59;410203;24;1245;-81
2022/06/12 00:10:10;;;;;;;356.60;210.65;;;;;;;19.18;98.23;99116.38;410651;24;822;-81
2022/06/12 00:10:21;;;;;;;354.15;207.60;;;;;;;19.20;98.45;99125.06;414130;23;857;-81
2022/06/12 00:10:32;;;;;;;353.37;205.43;;;;;;;19.17;98.24;99114.69;410055;24;1103;-81
2022/06/12 00:10:44;;;;;;;355.10;204.98;;;;;;;19.13;98.65;99113.28;412268;24;1350;-81
2022/06/12 00:10:55;;;;;;;354.33;206.52;;;;;;;19.16;98.50;99119.16;410232;24;1255;-81
2022/06/12 00:11:08;;;;;;;352.67;206.65;;;;;;;19.16;98.80;99119.16;411997;24;834;-81
2022/06/12 00:11:19;;;;;;;352.08;209.65;;;;;;;19.17;98.65;99117.34;410058;24;1370;-81
2022/06/12 00:11:29;;;;;;;353.90;213.45;;;;;;;19.19;98.63;99118.91;412232;24;865;-81
2022/06/12 00:11:41;;;;;;;357.57;214.53;;;;;;;19.22;98.73;99112.50;409962;24;1140;-81
2022/06/12 00:11:51;;;;;;;354.67;210.50;;;;;;;19.25;98.44;99122.84;408215;24;1282;-81
2022/06/12 00:12:02;;;;;;;352.40;208.27;;;;;;;19.27;98.51;99120.91;410086;24;1307;-81
2022/06/12 00:12:12;;;;;;;352.77;210.52;;;;;;;19.26;98.54;99120.06;410125;24;1207;-81
2022/06/12 00:12:23;;;;;;;355.13;212.07;;;;;;;19.29;98.59;99118.97;410190;24;1222;-81
2022/06/12 00:12:33;;;;;;;354.80;211.90;;;;;;;19.31;98.72;99117.03;412270;24;888;-81
2022/06/12 00:12:44;;;;;;;355.37;210.80;;;;;;;19.31;98.48;99122.34;410834;24;1186;-80
2022/06/12 00:12:54;;;;;;;355.73;210.70;;;;;;;19.32;98.54;99124.03;413856;23;1004;-80
2022/06/12 00:13:06;;;;;;;357.00;213.37;;;;;;;19.33;98.42;99120.41;412172;24;1345;-80
2022/06/12 00:13:20;;;;;;;357.50;212.38;;;;;;;19.34;98.18;99121.25;410298;24;1484;-80
2022/06/12 00:13:34;;;;;;;355.45;208.75;;;;;;;19.37;98.40;99120.97;410144;24;858;-80
2022/06/12 00:13:48;;;;;;;352.92;206.43;;;;;;;19.36;98.10;99120.13;410078;24;1354;-80
2022/06/12 00:14:00;;;;;;;351.92;206.95;;;;;;;19.37;98.07;99120.97;411475;24;838;-80
2022/06/12 00:14:11;;;;;;;354.75;212.07;;;;;;;19.40;98.12;99126.88;409854;24;849;-80
2022/06/12 00:14:21;;;;;;;358.02;212.93;;;;;;;19.34;98.15;99122.09;410058;24;1294;-80
2022/06/12 00:14:32;;;;;;;359.65;212.57;;;;;;;19.35;97.63;99123.75;410137;24;905;-80
2022/06/12 00:14:42;;;;;;;357.73;209.03;;;;;;;19.32;97.48;99129.34;410069;24;1190;-80
2022/06/12 00:14:55;;;;;;;354.58;207.07;;;;;;;19.28;97.49;99127.91;412202;24;917;-80
2022/06/12 00:15:06;;;;;;;350.65;206.52;;;;;;;19.29;97.82;99129.59;412065;24;4791;-80
2022/06/12 00:15:18;;;;;;;351.05;206.90;;;;;;;19.29;98.06;99126.94;414210;23;1075;-80
2022/06/12 00:15:29;;;;;;;350.55;208.38;;;;;;;19.32;98.09;99128.50;412194;24;1290;-80
2022/06/12 00:15:40;;;;;;;354.30;212.23;;;;;;;19.33;97.71;99127.50;410251;24;1341;-80
2022/06/12 00:15:50;;;;;;;353.40;214.67;;;;;;;19.32;97.76;99125.84;412143;24;1388;-80
2022/06/12 00:16:01;;;;;;;352.30;214.60;;;;;;;19.34;97.87;99127.38;411985;24;1380;-80
2022/06/12 00:16:13;;;;;;;350.17;213.50;;;;;;;19.35;97.73;99129.06;408018;24;1097;-80
2022/06/12 00:16:24;;;;;;;348.60;210.68;;;;;;;19.36;97.65;99130.75;412153;24;798;-80
2022/06/12 00:16:35;;;;;;;347.90;209.02;;;;;;;19.33;97.83;99125.72;411896;24;1362;-80
2022/06/12 00:16:46;;;;;;;347.90;207.60;;;;;;;19.32;97.60;99129.34;408218;24;1332;-80
2022/06/12 00:16:56;;;;;;;348.95;209.23;;;;;;;19.30;97.94;99125.97;410214;24;795;-80
2022/06/12 00:17:07;;;;;;;349.73;211.87;;;;;;;19.27;97.53;99123.56;408225;24;1287;-80
2022/06/12 00:17:17;;;;;;;349.90;212.80;;;;;;;19.26;97.93;99133.34;408385;24;783;-80
2022/06/12 00:17:27;;;;;;;351.10;211.20;;;;;;;19.26;97.92;99124.53;408532;24;846;-80
2022/06/12 00:17:41;;;;;;;353.03;212.33;;;;;;;19.26;97.87;99128.03;410270;24;858;-80
2022/06/12 00:17:52;;;;;;;352.50;209.35;;;;;;;19.30;97.82;99133.09;410446;24;1083;-80
2022/06/12 00:18:03;;;;;;;352.85;209.93;;;;;;;19.28;97.67;99127.91;412716;24;1007;-80
2022/06/12 00:18:13;;;;;;;354.23;210.38;;;;;;;19.28;97.90;99127.91;414120;23;1413;-80
2022/06/12 00:18:24;;;;;;;359.17;212.55;;;;;;;19.25;97.73;99122.84;412130;24;1286;-80
2022/06/12 00:18:36;;;;;;;360.77;212.97;;;;;;;19.25;97.65;99133.47;414129;23;1175;-80
2022/06/12 00:18:46;;;;;;;359.35;213.70;;;;;;;19.27;98.02;99131.53;410088;24;1419;-80
2022/06/12 00:18:57;;;;;;;358.08;214.25;;;;;;;19.27;97.73;99131.53;408202;24;966;-80
2022/06/12 00:19:08;;;;;;;359.17;216.13;;;;;;;19.30;97.50;99128.63;407977;24;1901;-80
2022/06/12 00:19:18;;;;;;;356.70;211.38;;;;;;;19.29;97.82;99132.25;410117;24;1379;-80
2022/06/12 00:19:30;;;;;;;355.15;210.40;;;;;;;19.27;97.65;99131.53;410066;24;1218;-80
2022/06/12 00:19:44;;;;;;;355.25;210.80;;;;;;;19.23;97.75;99119.50;411978;24;1282;-80
2022/06/12 00:19:54;;;;;;;356.77;212.70;;;;;;;19.23;97.58;99135.41;411912;24;1260;-80
2022/06/12 00:20:05;;;;;;;355.13;211.50;;;;;;;19.21;97.55;99132.03;410131;24;1304;-80
2022/06/12 00:20:16;;;;;;;354.65;214.15;;;;;;;19.22;97.52;99123.13;410603;24;828;-80
2022/06/12 00:20:27;;;;;;;356.65;217.20;;;;;;;19.24;97.70;99129.13;408233;24;878;-80
2022/06/12 00:20:37;;;;;;;358.97;219.30;;;;;;;19.26;97.43;99124.53;410543;24;1412;-80
2022/06/12 00:20:48;;;;;;;356.23;214.90;;;;;;;19.27;97.65;99132.38;412256;24;734;-80
2022/06/12 00:21:10;;;;;;;355.07;213.40;;;;;;;19.30;97.55;99131.28;410255;24;1112;-80
2022/06/12 00:21:21;;;;;;;355.95;215.73;;;;;;;19.28;97.74;99125.25;413852;23;1350;-80
2022/06/12 00:21:31;;;;;;;356.13;213.63;;;;;;;19.27;97.51;99127.06;413874;23;1323;-80
2022/06/12 00:21:42;;;;;;;358.10;212.00;;;;;;;19.26;97.92;99127.19;413928;23;1261;-80
2022/06/12 00:21:52;;;;;;;356.33;211.60;;;;;;;19.28;97.88;99130.56;415809;23;1370;-80
2022/06/12 00:22:03;;;;;;;357.20;212.83;;;;;;;19.29;97.93;99132.25;414039;23;904;-80
2022/06/12 00:22:13;;;;;;;353.88;211.45;;;;;;;19.27;97.83;99132.38;408208;24;1271;-80
2022/06/12 00:22:24;;;;;;;355.50;211.43;;;;;;;19.30;97.70;99125.97;410005;24;1182;-80
2022/06/12 00:22:34;;;;;;;353.77;211.48;;;;;;;19.32;97.78;99123.19;408068;24;1376;-80
2022/06/12 00:22:45;;;;;;;355.67;213.23;;;;;;;19.32;97.71;99126.69;413979;23;1352;-80
2022/06/12 00:22:55;;;;;;;354.40;213.32;;;;;;;19.31;97.38;99126.81;412274;24;1174;-80
2022/06/12 00:23:11;;;;;;;355.73;214.70;;;;;;;19.25;97.33;99122.84;408232;24;1282;-80
2022/06/12 00:23:21;;;;;;;353.25;214.65;;;;;;;19.27;97.67;99132.38;413561;23;790;-80
2022/06/12 00:23:32;;;;;;;354.33;214.40;;;;;;;19.29;97.76;99126.94;411954;24;807;-80
2022/06/12 00:23:44;;;;;;;356.60;216.25;;;;;;;19.28;97.31;99130.56;414070;23;1249;-80
2022/06/12 00:23:57;;;;;;;355.40;211.00;;;;;;;19.29;97.62;99129.59;409995;24;1389;-82
2022/06/12 00:24:10;;;;;;;352.55;208.55;;;;;;;19.33;97.28;99128.34;408019;24;1398;-82
2022/06/12 00:24:20;;;;;;;355.58;210.32;;;;;;;19.34;97.46;99126.53;409989;24;1287;-80
2022/06/12 00:24:31;;;;;;;354.43;209.87;;;;;;;19.36;97.22;99129.91;412037;24;880;-80
2022/06/12 00:24:41;;;;;;;353.47;210.13;;;;;;;19.36;97.43;99129.91;412094;24;1028;-80
2022/06/12 00:24:52;;;;;;;353.40;213.27;;;;;;;19.34;97.39;99126.53;415770;23;1185;-80
2022/06/12 00:25:03;;;;;;;354.00;216.43;;;;;;;19.35;97.14;99126.41;412106;23;1262;-80
2022/06/12 00:25:14;;;;;;;354.90;217.07;;;;;;;19.34;97.25;99127.38;408288;24;1056;-80
2022/06/12 00:25:27;;;;;;;352.60;213.18;;;;;;;19.36;97.21;99125.44;414274;23;874;-80
2022/06/12 00:25:37;;;;;;;353.67;214.00;;;;;;;19.38;97.38;99128.81;413908;23;1385;-80
2022/06/12 00:25:48;;;;;;;353.60;212.88;;;;;;;19.35;97.32;99121.09;408477;24;1227;-81
2022/06/12 00:25:58;;;;;;;355.73;211.90;;;;;;;19.37;97.05;99131.59;408633;24;1071;-80
2022/06/12 00:26:08;;;;;;;354.65;211.00;;;;;;;19.37;97.01;99121.81;406539;24;851;-80
2022/06/12 00:26:22;;;;;;;356.00;213.50;;;;;;;19.37;96.76;99126.28;410273;24;1282;-80
2022/06/12 00:26:44;;;;;;;356.55;214.93;;;;;;;19.32;97.22;99129.34;413994;23;1549;-80
2022/06/12 00:26:55;;;;;;;353.90;211.88;;;;;;;19.31;97.05;99127.66;415910;23;953;-80
2022/06/12 00:27:07;;;;;;;355.33;212.70;;;;;;;19.30;97.12;99130.44;412030;24;1278;-81
2022/06/12 00:27:17;;;;;;;359.40;215.13;;;;;;;19.29;97.22;99124.28;408133;24;782;-81
2022/06/12 00:27:28;;;;;;;356.80;209.52;;;;;;;19.31;97.09;99127.66;410177;24;789;-81
2022/06/12 00:27:38;;;;;;;355.83;209.87;;;;;;;19.33;97.00;99123.06;414151;23;880;-81
2022/06/12 00:27:49;;;;;;;354.48;211.00;;;;;;;19.35;97.19;99123.75;411985;24;1225;-81
2022/06/12 00:28:00;;;;;;;353.63;212.50;;;;;;;19.36;97.04;99125.44;410263;24;1235;-81
2022/06/12 00:28:11;;;;;;;354.73;210.55;;;;;;;19.38;96.97;99128.81;408435;24;1373;-80
2022/06/12 00:28:21;;;;;;;353.90;208.05;;;;;;;19.38;96.92;99122.66;412119;24;732;-80
2022/06/12 00:28:32;;;;;;;356.27;210.40;;;;;;;19.38;96.98;99128.81;416394;23;1222;-80
2022/06/12 00:28:42;;;;;;;355.60;212.57;;;;;;;19.35;97.21;99122.94;411981;24;1321;-80
2022/06/12 00:29:00;;;;;;;356.53;214.20;;;;;;;19.33;97.17;99120.41;410359;24;778;-80
2022/06/12 00:29:14;;;;;;;352.60;209.35;;;;;;;19.32;96.89;99123.19;413970;23;844;-80
2022/06/12 00:29:29;;;;;;;351.80;208.40;;;;;;;19.31;97.29;99125.00;412129;24;917;-80
2022/06/12 00:29:39;;;;;;;353.13;209.77;;;;;;;19.31;97.03;99121.50;408051;24;1412;-79
2022/06/12 00:29:50;;;;;;;353.20;210.93;;;;;;;19.31;97.20;99118.84;414172;23;847;-79
2022/06/12 00:30:00;;;;;;;354.25;211.10;;;;;;;19.29;97.30;99118.97;413886;23;1242;-81
2022/06/12 00:30:13;;;;;;;351.88;210.02;;;;;;;19.26;97.55;99124.53;409874;24;1384;-80
2022/06/12 00:30:25;;;;;;;351.30;205.98;;;;;;;19.26;97.23;99119.22;412019;24;1375;-80
2022/06/12 00:30:35;;;;;;;350.88;205.73;;;;;;;19.25;97.17;99117.53;412188;24;918;-80
2022/06/12 00:30:46;;;;;;;351.13;205.90;;;;;;;19.25;97.17;99120.19;410430;24;821;-80
2022/06/12 00:30:56;;;;;;;352.33;207.43;;;;;;;19.20;97.42;99109.13;408397;24;771;-80
2022/06/12 00:31:07;;;;;;;356.30;209.98;;;;;;;19.27;97.53;99121.75;408499;24;1551;-80
2022/06/12 00:31:17;;;;;;;357.47;212.27;;;;;;;19.28;97.73;99117.28;410651;24;956;-80
2022/06/12 00:31:28;;;;;;;356.33;213.15;;;;;;;19.24;97.63;99107.91;408340;24;865;-80
2022/06/12 00:31:41;;;;;;;356.63;214.00;;;;;;;19.23;97.43;99109.72;408375;24;1070;-80
2022/06/12 00:31:54;;;;;;;357.77;214.98;;;;;;;19.20;97.64;99109.97;406513;24;1377;-80
2022/06/12 00:32:10;;;;;;;356.58;212.50;;;;;;;19.26;97.55;99113.94;411865;24;1277;-81
2022/06/12 00:32:20;;;;;;;356.63;210.18;;;;;;;19.29;97.61;99111.00;411769;24;999;-81
2022/06/12 00:32:31;;;;;;;358.50;207.70;;;;;;;19.31;97.54;99118.84;407542;24;1224;-81
2022/06/12 00:32:41;;;;;;;357.17;206.77;;;;;;;19.32;97.66;99113.41;411994;24;1260;-81
2022/06/12 00:32:54;;;;;;;360.55;207.73;;;;;;;19.33;97.85;99114.25;411940;23;1184;-81
2022/06/12 00:33:05;;;;;;;361.67;211.02;;;;;;;19.31;97.75;99111.72;410109;24;1697;-81
2022/06/12 00:33:15;;;;;;;360.48;210.57;;;;;;;19.34;97.93;99115.94;410204;24;1180;-80
2022/06/12 00:33:26;;;;;;;358.73;211.60;;;;;;;19.26;97.50;99105.97;408297;24;1290;-80
2022/06/12 00:33:36;;;;;;;356.42;209.50;;;;;;;19.27;97.54;99110.31;409904;24;1186;-80
2022/06/12 00:33:47;;;;;;;359.47;210.57;;;;;;;19.28;97.48;99111.97;410355;24;1199;-80
2022/06/12 00:33:58;;;;;;;359.38;210.05;;;;;;;19.26;97.42;99112.13;408279;24;1342;-80
2022/06/12 00:34:09;;;;;;;358.55;209.75;;;;;;;19.26;97.42;99103.31;408024;24;1191;-80
2022/06/12 00:34:20;;;;;;;356.63;209.52;;;;;;;19.31;97.51;99116.19;410213;24;1369;-80
2022/06/12 00:34:34;;;;;;;353.63;206.50;;;;;;;19.32;97.23;99118.72;414121;23;1291;-80
2022/06/12 00:34:49;;;;;;;351.50;205.15;;;;;;;19.35;97.62;99113.16;410066;24;5952;-80
2022/06/12 00:34:59;;;;;;;350.27;203.63;;;;;;;19.34;97.75;99114.13;411899;24;5139;-80
2022/06/12 00:35:10;;;;;;;350.60;205.73;;;;;;;19.32;97.18;99113.41;408230;24;1159;-81
2022/06/12 00:35:26;;;;;;;352.25;207.63;;;;;;;19.30;97.33;99109.19;406425;24;904;-80
2022/06/12 00:35:38;;;;;;;350.48;203.95;;;;;;;19.29;97.65;99113.66;410295;24;898;-80
2022/06/12 00:35:48;;;;;;;350.23;202.43;;;;;;;19.28;97.31;99106.69;408312;24;1359;-80
2022/06/12 00:35:59;;;;;;;349.48;199.90;;;;;;;19.27;97.50;99110.31;410403;24;1243;-80
2022/06/12 00:36:09;;;;;;;350.90;199.77;;;;;;;19.29;97.54;99108.34;408061;24;1355;-80
2022/06/12 00:36:20;;;;;;;351.88;202.38;;;;;;;19.30;97.43;99104.72;408500;24;1275;-82
2022/06/12 00:36:30;;;;;;;353.27;209.60;;;;;;;19.29;97.34;99103.06;410867;24;1297;-82
2022/06/12 00:36:41;;;;;;;354.67;212.98;;;;;;;19.29;97.33;99113.66;410353;24;1297;-80
2022/06/12 00:36:53;;;;;;;352.25;208.55;;;;;;;19.28;97.43;99104.03;410130;24;1221;-80
2022/06/12 00:37:03;;;;;;;349.58;204.95;;;;;;;19.30;97.68;99110.03;414118;23;861;-79
2022/06/12 00:37:14;;;;;;;346.88;201.65;;;;;;;19.31;97.53;99110.88;412212;24;1175;-80
2022/06/12 00:37:25;;;;;;;353.38;208.85;;;;;;;19.29;97.35;99108.34;410120;24;1250;-80
2022/06/12 00:37:36;;;;;;;355.67;208.48;;;;;;;19.27;97.44;99102.34;408058;24;1266;-80
2022/06/12 00:37:46;;;;;;;354.55;207.90;;;;;;;19.29;97.73;99116.31;410130;24;1494;-80
2022/06/12 00:37:57;;;;;;;350.87;206.00;;;;;;;19.28;97.41;99111.97;412153;24;1036;-80
2022/06/12 00:38:07;;;;;;;347.92;205.60;;;;;;;19.29;97.71;99111.00;412272;24;805;-80
2022/06/12 00:38:18;;;;;;;349.70;207.20;;;;;;;19.27;97.40;99111.13;412333;24;869;-80
2022/06/12 00:38:28;;;;;;;351.43;208.10;;;;;;;19.27;97.81;99105.00;412092;24;867;-79
2022/06/12 00:38:39;;;;;;;358.27;212.63;;;;;;;19.27;97.56;99110.31;414050;23;1364;-79
2022/06/12 00:38:49;;;;;;;358.55;213.50;;;;;;;19.28;97.42;99115.47;413883;23;1270;-81
2022/06/12 00:39:00;;;;;;;361.27;214.07;;;;;;;19.29;97.63;99105.72;414527;23;739;-80
2022/06/12 00:39:10;;;;;;;359.37;212.10;;;;;;;19.24;97.66;99105.25;414273;23;1986;-79
2022/06/12 00:39:21;;;;;;;359.83;212.30;;;;;;;19.27;97.43;99107.66;414145;23;854;-79
2022/06/12 00:39:32;;;;;;;356.80;208.70;;;;;;;19.27;97.89;99115.59;410193;23;1294;-79
2022/06/12 00:39:43;;;;;;;356.85;210.65;;;;;;;19.27;97.59;99105.00;410261;24;797;-80
2022/06/12 00:39:54;;;;;;;356.30;208.43;;;;;;;19.28;97.49;99111.97;412034;24;1324;-80
2022/06/12 00:40:05;;;;;;;352.70;207.00;;;;;;;19.22;97.39;99100.06;412015;24;1402;-81
2022/06/12 00:40:17;;;;;;;355.67;210.20;;;;;;;19.22;97.33;99112.50;412082;24;817;-81
2022/06/12 00:40:27;;;;;;;360.42;215.90;;;;;;;19.22;97.85;99099.22;412027;24;1270;-81
2022/06/12 00:40:38;;;;;;;360.50;215.23;;;;;;;19.26;97.79;99108.63;410213;24;1207;-81
2022/06/12 00:40:48;;;;;;;355.83;210.23;;;;;;;19.27;97.85;99115.59;408354;24;920;-81
2022/06/12 00:40:59;;;;;;;354.48;208.10;;;;;;;19.25;97.61;99110.44;410319;24;865;-81
2022/06/12 00:41:09;;;;;;;357.17;209.70;;;;;;;19.27;97.83;99105.84;414283;23;1274;-81
2022/06/12 00:41:20;;;;;;;361.92;215.63;;;;;;;19.26;97.82;99105.97;410010;24;1322;-81
2022/06/12 00:41:30;;;;;;;362.17;214.93;;;;;;;19.28;97.97;99118.13;410283;24;893;-81
2022/06/12 00:41:41;;;;;;;359.60;214.65;;;;;;;19.26;97.77;99105.97;408155;24;1284;-81
2022/06/12 00:41:53;;;;;;;356.67;211.83;;;;;;;19.21;97.53;99110.81;408055;24;1222;-81
2022/06/12 00:42:04;;;;;;;360.75;214.65;;;;;;;19.20;97.51;99104.66;413947;23;1266;-81
2022/06/12 00:42:40;;;;;;;360.10;214.15;;;;;;;19.19;97.67;99108.28;411865;24;1151;-81
2022/06/12 00:42:53;;;;;;;349.65;202.13;;;;;;;19.21;97.84;99108.16;409419;24;1162;-79
2022/06/12 00:43:04;;;;;;;348.63;204.45;;;;;;;19.22;97.99;99101.88;411815;24;5208;-79
2022/06/12 00:43:14;;;;;;;351.63;209.13;;;;;;;19.18;97.81;99105.75;409962;24;1271;-79
2022/06/12 00:43:29;;;;;;;353.97;211.83;;;;;;;19.18;97.85;99100.47;408138;24;1143;-79
2022/06/12 00:43:40;;;;;;;355.75;213.43;;;;;;;19.17;97.72;99104.94;408260;24;945;-79
2022/06/12 00:43:52;;;;;;;355.67;211.73;;;;;;;19.17;97.88;99109.38;412223;23;1410;-81
2022/06/12 00:44:04;;;;;;;355.40;211.02;;;;;;;19.21;97.54;99105.50;410024;24;1491;-81
2022/06/12 00:44:16;;;;;;;455.92;223.77;;;;;;;19.19;97.56;99102.16;406272;24;1336;-81
2022/06/12 00:44:30;;;;;;;469.42;226.00;;;;;;;19.24;97.80;99110.56;406698;24;4513;-80
2022/06/12 00:44:41;;;;;;;389.25;214.65;;;;;;;19.27;97.84;99110.31;408204;24;1474;-80
2022/06/12 00:44:51;;;;;;;358.90;208.05;;;;;;;19.26;97.84;99106.81;410000;24;1240;-80
2022/06/12 00:45:42;;;;;;;360.00;210.93;;;;;;;19.20;97.92;99109.13;410079;24;1185;-80
2022/06/12 00:45:54;;;;;;;347.52;204.43;;;;;;;19.22;98.01;99108.03;408208;24;833;-81
2022/06/12 00:46:05;;;;;;;351.38;207.73;;;;;;;19.23;97.92;99108.88;409903;24;767;-80
2022/06/12 00:46:35;;;;;;;353.10;209.70;;;;;;;19.26;97.80;99109.47;412113;24;921;-80
2022/06/12 00:46:50;;;;;;;345.85;201.27;;;;;;;19.28;97.73;99107.53;410014;24;4822;-80
2022/06/12 00:47:03;;;;;;;347.77;206.10;;;;;;;19.29;97.89;99113.66;406660;24;4857;-80
2022/06/12 00:47:14;;;;;;;351.02;207.73;;;;;;;19.31;97.83;99114.38;408216;24;1245;-80
2022/06/12 00:47:25;;;;;;;354.90;207.35;;;;;;;19.28;97.74;99118.13;414139;23;1367;-80
2022/06/12 00:47:35;;;;;;;355.20;210.07;;;;;;;19.25;97.88;99106.94;408243;24;1015;-80
2022/06/12 00:47:46;;;;;;;354.65;212.75;;;;;;;19.27;98.12;99116.44;409977;24;1225;-80
2022/06/12 00:47:57;;;;;;;354.30;212.17;;;;;;;19.24;97.76;99110.56;412082;24;1190;-80
2022/06/12 00:48:12;;;;;;;357.17;212.55;;;;;;;19.26;97.94;99113.94;410040;24;1510;-80
2022/06/12 00:48:24;;;;;;;353.52;210.52;;;;;;;19.22;97.74;99107.19;410051;24;5883;-80
2022/06/12 00:48:36;;;;;;;352.30;207.73;;;;;;;19.24;98.02;99111.41;408244;24;1392;-80
2022/06/12 00:48:47;;;;;;;352.58;207.23;;;;;;;19.27;98.07;99112.94;407261;24;1094;-80
2022/06/12 00:48:58;;;;;;;353.70;205.37;;;;;;;19.29;97.88;99118.97;408442;24;794;-80
2022/06/12 00:49:10;;;;;;;353.97;208.57;;;;;;;19.27;97.78;99110.31;408291;24;1396;-81
2022/06/12 00:49:24;;;;;;;355.17;208.18;;;;;;;19.27;97.96;99110.31;410055;24;838;-81
2022/06/12 00:49:36;;;;;;;351.75;206.98;;;;;;;19.26;98.01;99105.97;412093;24;4818;-81
2022/06/12 00:49:57;;;;;;;349.25;207.27;;;;;;;19.26;97.74;99108.63;410498;24;1261;-79
2022/06/12 00:50:08;;;;;;;346.80;208.38;;;;;;;19.27;97.93;99112.94;410052;24;5014;-80
2022/06/12 00:50:18;;;;;;;351.30;211.70;;;;;;;19.27;97.83;99113.78;411943;24;1298;-80
2022/06/12 00:50:29;;;;;;;356.53;215.53;;;;;;;19.27;97.75;99111.13;411938;23;1315;-80
2022/06/12 00:50:47;;;;;;;355.88;214.73;;;;;;;19.26;97.84;99111.28;412217;23;881;-80
2022/06/12 00:51:05;;;;;;;348.83;204.65;;;;;;;19.20;97.77;99109.13;407982;24;1173;-80
2022/06/12 00:51:16;;;;;;;353.55;206.82;;;;;;;19.23;97.84;99109.72;411991;24;806;-80
2022/06/12 00:51:27;;;;;;;355.65;208.82;;;;;;;19.19;97.82;99107.44;409970;24;1418;-80
2022/06/12 00:51:37;;;;;;;356.48;210.27;;;;;;;19.19;97.74;99113.59;408309;24;1460;-80
2022/06/12 00:51:49;;;;;;;356.03;211.00;;;;;;;19.19;97.70;99107.44;410087;24;1241;-80
2022/06/12 00:52:27;;;;;;;355.35;211.32;;;;;;;19.18;97.68;99105.75;410053;24;1631;-80
2022/06/12 00:52:43;;;;;;;348.75;204.75;;;;;;;19.22;97.79;99112.50;411694;24;5622;-81
2022/06/12 00:52:54;;;;;;;350.75;202.45;;;;;;;19.23;97.58;99108.88;409772;24;5224;-81
2022/06/12 00:53:04;;;;;;;351.77;203.83;;;;;;;19.24;97.78;99110.56;406316;24;1315;-81
2022/06/12 00:53:18;;;;;;;351.30;202.90;;;;;;;19.21;97.71;99108.16;410300;24;842;-81
2022/06/12 00:53:49;;;;;;;348.63;199.52;;;;;;;19.14;97.82;99109.66;411742;24;4839;-81
2022/06/12 00:53:59;;;;;;;345.58;199.68;;;;;;;19.13;97.82;99110.63;411888;23;5016;-81
2022/06/12 00:54:10;;;;;;;346.43;198.60;;;;;;;19.14;97.88;99112.31;410129;24;1261;-80
2022/06/12 00:54:20;;;;;;;349.17;201.53;;;;;;;19.14;97.76;99112.31;408481;24;1350;-80
2022/06/12 00:54:31;;;;;;;351.63;203.88;;;;;;;19.12;97.74;99098.31;407262;24;1245;-80